createdAt,value
2023-02-15T00:00:44.124Z,55.22
2023-02-15T00:05:10.368Z,51.70
2023-02-15T00:09:32.566Z,51.10
2023-02-15T00:13:55.146Z,51.60
2023-02-15T00:18:17.107Z,60.63
2023-02-15T00:22:39.664Z,61.80
2023-02-15T00:27:01.335Z,59.28
2023-02-15T00:31:23.729Z,63.63
2023-02-15T00:35:45.979Z,57.55
2023-02-15T00:40:08.943Z,63.70
2023-02-15T00:44:30.769Z,61.08
2023-02-15T00:48:52.806Z,63.75
2023-02-15T00:53:14.957Z,47.72
2023-02-15T00:57:36.915Z,42.67
2023-02-15T01:01:58.979Z,51.10
2023-02-15T01:06:21.089Z,49.15
2023-02-15T01:10:45.091Z,47.72
2023-02-15T01:15:07.260Z,46.90
2023-02-15T01:19:29.137Z,47.47
2023-02-15T01:23:51.250Z,47.30
2023-02-15T01:28:13.539Z,46.45
2023-02-15T01:32:35.535Z,47.35
2023-02-15T01:36:57.412Z,47.03
2023-02-15T01:41:25.535Z,49.35
2023-02-15T01:45:50.949Z,43.42
2023-02-15T01:50:35.672Z,53.85
2023-02-15T01:54:57.749Z,46.03
2023-02-15T01:59:24.591Z,39.88
2023-02-15T02:04:16.666Z,51.42
2023-02-15T02:08:39.290Z,44.08
2023-02-15T02:13:07.129Z,38.22
2023-02-15T02:18:07.081Z,39.58
2023-02-15T02:23:03.106Z,42.05
2023-02-15T02:28:10.286Z,38.13
2023-02-15T02:33:13.078Z,39.30
2023-02-15T02:37:56.092Z,39.83
2023-02-15T02:42:37.066Z,37.80
2023-02-15T02:47:45.845Z,39.72
2023-02-15T02:52:33.915Z,39.65
2023-02-15T02:57:00.428Z,37.05
2023-02-15T03:01:34.742Z,38.60
2023-02-15T03:06:03.558Z,34.55
2023-02-15T03:10:27.385Z,34.80
2023-02-15T03:14:54.631Z,37.95
2023-02-15T03:19:28.210Z,40.17
2023-02-15T03:24:04.420Z,37.67
2023-02-15T03:28:58.314Z,34.03
2023-02-15T03:33:21.700Z,32.45
2023-02-15T03:37:58.433Z,35.25
2023-02-15T03:42:33.148Z,32.00
2023-02-15T03:47:09.727Z,33.05
2023-02-15T03:51:39.226Z,35.50
2023-02-15T03:56:01.831Z,33.05
2023-02-15T04:00:44.921Z,31.20
2023-02-15T04:05:07.306Z,32.55
2023-02-15T04:09:48.307Z,28.02
2023-02-15T04:14:29.242Z,30.80
2023-02-15T04:19:10.588Z,35.05
2023-02-15T04:23:51.892Z,32.72
2023-02-15T04:28:14.083Z,32.60
2023-02-15T04:32:36.783Z,32.28
2023-02-15T04:36:58.585Z,42.92
2023-02-15T04:41:20.639Z,25.23
2023-02-15T04:45:42.593Z,283.20
2023-02-15T04:50:05.223Z,27.27
2023-02-15T04:54:27.330Z,25.65
2023-02-15T04:58:49.731Z,27.08
2023-02-15T05:03:11.869Z,22.67
2023-02-15T05:07:33.733Z,24.88
2023-02-15T05:11:55.871Z,28.77
2023-02-15T05:16:18.053Z,28.92
2023-02-15T05:20:40.021Z,25.08
2023-02-15T05:25:20.593Z,32.42
2023-02-15T05:29:42.765Z,30.67
2023-02-15T05:34:04.978Z,29.38
2023-02-15T05:38:26.807Z,34.05
2023-02-15T05:42:50.016Z,29.52
2023-02-15T05:47:12.403Z,26.02
2023-02-15T05:51:34.538Z,21.48
2023-02-15T05:56:00.940Z,25.48
2023-02-15T06:00:23.590Z,20.88
2023-02-15T06:04:45.438Z,20.45
2023-02-15T06:09:07.528Z,27.52
2023-02-15T06:13:30.118Z,26.08
2023-02-15T06:17:52.279Z,27.25
2023-02-15T06:22:15.219Z,21.77
2023-02-15T06:26:37.119Z,22.38
2023-02-15T06:30:59.022Z,23.25
2023-02-15T06:35:21.218Z,23.35
2023-02-15T06:39:44.158Z,24.50
2023-02-15T06:44:06.146Z,24.58
2023-02-15T06:48:28.139Z,21.80
2023-02-15T06:52:50.201Z,21.77
2023-02-15T06:57:12.461Z,27.85
2023-02-15T07:01:34.479Z,31.70
2023-02-15T07:06:02.106Z,391.08
2023-02-15T07:10:24.334Z,247.73
2023-02-15T07:14:46.083Z,27.88
2023-02-15T07:19:08.559Z,75.93
2023-02-15T07:23:30.753Z,14.98
2023-02-15T07:28:02.671Z,17.55
2023-02-15T07:32:24.816Z,17.48
2023-02-15T07:36:46.973Z,17.92
2023-02-15T07:41:13.298Z,18.40
2023-02-15T07:45:35.267Z,21.33
2023-02-15T07:49:57.071Z,14.80
2023-02-15T07:54:19.450Z,19.23
2023-02-15T07:58:54.010Z,16.48
2023-02-15T08:03:15.843Z,17.42
2023-02-15T08:07:38.010Z,68.53
2023-02-15T08:12:00.133Z,77.32
2023-02-15T08:16:33.075Z,55.75
2023-02-15T08:20:57.515Z,22.88
2023-02-15T08:25:19.680Z,17.83
2023-02-15T08:29:43.386Z,16.38
2023-02-15T08:34:06.682Z,22.35
2023-02-15T08:38:28.501Z,19.83
2023-02-15T08:42:50.279Z,18.95
2023-02-15T08:47:12.801Z,16.08
2023-02-15T08:51:38.662Z,14.00
2023-02-15T08:56:01.033Z,11.95
2023-02-15T09:00:23.797Z,15.63
2023-02-15T09:04:45.967Z,17.48
2023-02-15T09:09:08.978Z,20.42
2023-02-15T09:13:31.177Z,13.23
2023-02-15T09:17:53.926Z,16.05
2023-02-15T09:22:15.967Z,17.80
2023-02-15T09:26:42.209Z,15.43
2023-02-15T09:31:17.505Z,17.00
2023-02-15T09:35:39.669Z,16.45
2023-02-15T09:40:01.948Z,14.45
2023-02-15T09:45:14.416Z,16.45
2023-02-15T09:49:51.705Z,16.63
2023-02-15T09:54:29.084Z,14.88
2023-02-15T09:59:21.597Z,13.15
2023-02-15T10:04:19.130Z,14.68
2023-02-15T10:09:17.196Z,12.55
2023-02-15T10:14:05.501Z,16.15
2023-02-15T10:18:42.204Z,12.90
2023-02-15T10:23:14.363Z,13.10
2023-02-15T10:27:39.965Z,14.85
2023-02-15T10:32:29.337Z,15.98
2023-02-15T10:37:25.315Z,18.30
2023-02-15T10:42:15.576Z,15.52
2023-02-15T10:52:34.457Z,14.98
2023-02-15T10:57:28.056Z,18.75
2023-02-15T11:02:15.798Z,13.85
2023-02-15T11:06:42.895Z,8.82
2023-02-15T11:11:13.433Z,7.82
2023-02-15T11:15:48.672Z,15.10
2023-02-15T11:20:44.906Z,10.63
2023-02-15T11:25:31.178Z,15.23
2023-02-15T11:30:20.626Z,11.77
2023-02-15T11:35:18.878Z,10.70
2023-02-15T11:39:42.074Z,11.70
2023-02-15T11:44:22.075Z,13.75
2023-02-15T11:48:44.326Z,21.25
2023-02-15T11:53:15.543Z,16.08
2023-02-15T11:57:45.534Z,10.90
2023-02-15T12:02:20.681Z,11.60
2023-02-15T12:07:16.516Z,13.77
2023-02-15T12:11:41.455Z,12.57
2023-02-15T12:16:13.763Z,9.13
2023-02-15T12:20:37.864Z,9.88
2023-02-15T12:25:04.037Z,10.55
2023-02-15T12:29:32.013Z,7.88
2023-02-15T12:33:59.219Z,9.07
2023-02-15T12:38:26.355Z,9.18
2023-02-15T12:42:48.394Z,17.02
2023-02-15T12:47:10.162Z,10.55
2023-02-15T12:51:33.581Z,8.32
2023-02-15T12:56:08.353Z,11.82
2023-02-15T13:00:32.988Z,8.90
2023-02-15T13:04:56.858Z,7.93
2023-02-15T13:09:32.263Z,9.07
2023-02-15T13:14:04.937Z,7.70
2023-02-15T13:18:45.418Z,7.80
2023-02-15T13:23:26.097Z,11.30
2023-02-15T13:28:03.024Z,5.65
2023-02-15T13:32:30.657Z,6.80
2023-02-15T13:37:11.840Z,6.03
2023-02-15T13:41:54.681Z,9.73
2023-02-15T13:46:44.023Z,6.78
2023-02-15T13:51:34.182Z,7.47
2023-02-15T13:56:52.420Z,3.35
2023-02-15T14:01:40.180Z,6.90
2023-02-15T14:06:30.180Z,9.98
2023-02-15T14:11:28.028Z,6.03
2023-02-15T14:16:15.813Z,4.72
2023-02-15T14:20:53.493Z,5.38
2023-02-15T14:25:21.619Z,8.90
2023-02-15T14:30:04.516Z,7.80
2023-02-15T14:34:36.789Z,6.60
2023-02-15T14:39:42.572Z,4.35
2023-02-15T14:44:38.872Z,5.28
2023-02-15T14:49:17.997Z,6.88
2023-02-15T14:53:41.040Z,4.68
2023-02-15T14:58:02.784Z,7.05
2023-02-15T15:02:49.683Z,6.75
2023-02-15T15:07:22.713Z,3.90
2023-02-15T15:11:50.179Z,5.53
2023-02-15T15:16:39.164Z,7.53
2023-02-15T15:21:01.226Z,5.82
2023-02-15T15:25:42.242Z,6.75
2023-02-15T15:30:24.380Z,4.93
2023-02-15T15:35:23.536Z,9.65
2023-02-15T15:40:36.293Z,8.15
2023-02-15T15:45:11.862Z,5.55
2023-02-15T15:49:36.273Z,9.60
2023-02-15T15:53:58.812Z,4.57
2023-02-15T15:58:21.161Z,6.60
2023-02-15T16:02:54.269Z,21.42
2023-02-15T16:07:19.301Z,8.18
2023-02-15T16:11:42.086Z,8.13
2023-02-15T16:16:04.833Z,8.65
2023-02-15T16:20:38.008Z,10.23
2023-02-15T16:25:54.713Z,21.52
2023-02-15T16:30:37.622Z,13.30
2023-02-15T16:35:03.371Z,9.43
2023-02-15T16:39:25.291Z,11.45
2023-02-15T16:43:50.176Z,12.48
2023-02-15T16:48:22.972Z,15.18
2023-02-15T16:52:45.565Z,13.05
2023-02-15T16:57:19.693Z,13.23
2023-02-15T17:01:45.981Z,10.48
2023-02-15T17:06:26.850Z,16.27
2023-02-15T17:11:21.573Z,10.73
2023-02-15T17:16:06.042Z,10.02
2023-02-15T17:20:31.152Z,11.48
2023-02-15T17:25:05.599Z,10.88
2023-02-15T17:29:38.572Z,11.13
2023-02-15T17:34:02.720Z,15.27
2023-02-15T17:38:25.749Z,13.15
2023-02-15T17:42:48.112Z,10.52
2023-02-15T17:47:22.125Z,12.68
2023-02-15T17:51:44.608Z,14.85
2023-02-15T17:56:15.483Z,16.15
2023-02-15T18:01:16.728Z,14.68
2023-02-15T18:05:57.480Z,15.02
2023-02-15T18:10:38.815Z,16.95
2023-02-15T18:15:01.857Z,13.90
2023-02-15T18:19:26.504Z,14.48
2023-02-15T18:23:48.881Z,13.65
2023-02-15T18:28:14.143Z,384.40
2023-02-15T18:32:40.380Z,572.85
2023-02-15T18:37:05.734Z,565.63
2023-02-15T18:41:27.464Z,20.70
2023-02-15T18:45:49.584Z,18.63
2023-02-15T18:50:14.281Z,612.40
2023-02-15T18:54:36.467Z,17.20
2023-02-15T18:58:58.370Z,16.60
2023-02-15T19:03:20.291Z,17.70
2023-02-15T19:07:45.576Z,19.02
2023-02-15T19:12:13.436Z,17.60
2023-02-15T19:16:36.382Z,21.15
2023-02-15T19:20:58.347Z,15.05
2023-02-15T19:25:25.842Z,16.00
2023-02-15T19:29:48.581Z,17.30
2023-02-15T19:34:18.729Z,16.63
2023-02-15T19:38:41.927Z,15.73
2023-02-15T19:43:04.206Z,17.20
2023-02-15T19:47:28.498Z,17.45
2023-02-15T19:51:50.252Z,16.33
2023-02-15T19:56:18.324Z,16.88
2023-02-15T20:00:40.356Z,18.38
2023-02-15T20:05:02.237Z,14.13
2023-02-15T20:09:37.873Z,18.00
2023-02-15T20:13:59.992Z,16.75
2023-02-15T20:18:22.778Z,20.60
2023-02-15T20:22:48.142Z,20.52
2023-02-15T20:27:18.438Z,159.30
2023-02-15T20:31:41.065Z,16.08
2023-02-15T20:36:04.036Z,14.48
2023-02-15T20:40:35.565Z,15.90
2023-02-15T20:44:57.278Z,15.20
2023-02-15T20:49:19.700Z,13.40
2023-02-15T20:53:41.838Z,30.27
2023-02-15T20:58:14.738Z,17.20
2023-02-15T21:02:36.570Z,19.05
2023-02-15T21:07:01.504Z,24.13
2023-02-15T21:11:23.978Z,17.25
2023-02-15T21:15:45.689Z,15.18
2023-02-15T21:20:14.517Z,19.58
2023-02-15T21:24:36.822Z,429.20
2023-02-15T21:28:58.759Z,575.73
2023-02-15T21:33:20.748Z,556.50
2023-02-15T21:37:44.589Z,563.87
2023-02-15T21:42:29.364Z,477.58
2023-02-15T21:47:10.332Z,91.18
2023-02-15T21:51:52.323Z,94.07
2023-02-15T21:56:23.297Z,553.33
2023-02-15T22:00:45.079Z,540.57
2023-02-15T22:05:16.158Z,524.37
2023-02-15T22:09:38.357Z,500.53
2023-02-15T22:14:00.469Z,567.23
2023-02-15T22:18:31.514Z,521.83
2023-02-15T22:22:55.048Z,562.17
2023-02-15T22:27:28.096Z,506.60
2023-02-15T22:31:50.118Z,502.97
2023-02-15T22:36:29.054Z,422.37
2023-02-15T22:40:54.759Z,19.33
2023-02-15T22:45:30.029Z,20.30
2023-02-15T22:49:54.654Z,17.05
2023-02-15T22:54:18.354Z,17.50
2023-02-15T22:58:40.613Z,20.00
2023-02-15T23:03:02.551Z,20.55
2023-02-15T23:07:24.734Z,24.02
2023-02-15T23:11:55.283Z,18.92
2023-02-15T23:16:19.052Z,299.73
2023-02-15T23:20:40.865Z,510.00
2023-02-15T23:25:02.849Z,340.60
2023-02-15T23:29:25.052Z,506.47
2023-02-15T23:33:48.333Z,518.63
2023-02-15T23:38:25.320Z,529.07
2023-02-15T23:42:47.397Z,500.50
2023-02-15T23:47:48.709Z,325.77
2023-02-15T23:52:11.931Z,14.85
2023-02-15T23:56:34.431Z,476.87
